Time;durP1;ratioP1;P1;durP2;ratioP2;P2;SDS_P1;SDS_P2;PMS_P1;PMS_P2;Temp;Humidity;BMP_temperature;BMP_pressure;BME280_temperature;BME280_humidity;BME280_pressure;Samples;Min_cycle;Max_cycle;Signal;HPM_P1;HPM_P2
2023/01/06 00:02:22;;;;;;;;;;;;;;;;;;4993772;28;19948;-66
2023/01/06 00:04:50;;;;;;;;;;;;;;;;;;4996699;28;19921;-66
2023/01/06 00:07:15;;;;;;;;;;;;;;;;;;4994435;28;20407;-66
2023/01/06 00:09:40;;;;;;;;;;;;;;;;;;4996990;28;19928;-66
2023/01/06 00:12:06;;;;;;;;;;;;;;;;;;4995952;28;19917;-65
2023/01/06 00:14:31;;;;;;;;;;;;;;;;;;4993906;28;19951;-66
2023/01/06 00:16:56;;;;;;;;;;;;;;;;;;4981020;28;20462;-66
2023/01/06 00:19:22;;;;;;;;;;;;;;;;;;4994861;28;19944;-66
2023/01/06 00:21:50;;;;;;;;;;;;;;;;;;4979010;28;19950;-67
2023/01/06 00:24:17;;;;;;;;;;;;;;;;;;4996461;28;19925;-67
2023/01/06 00:26:45;;;;;;;;;;;;;;;;;;4997020;28;19936;-66
2023/01/06 00:29:13;;;;;;;;;;;;;;;;;;4994424;28;20401;-65
2023/01/06 00:31:38;;;;;;;;;;;;;;;;;;4994071;28;19921;-65
2023/01/06 00:34:06;;;;;;;;;;;;;;;;;;4993941;28;20119;-65
2023/01/06 00:36:38;;;;;;;;;;;;;;;;;;4998388;28;19929;-65
2023/01/06 00:39:06;;;;;;;;;;;;;;;;;;4994434;28;20146;-65
2023/01/06 00:44:23;;;;;;;;;;;;;;;;;;4999280;28;19921;-65
2023/01/06 00:46:50;;;;;;;;;;;;;;;;;;5001631;28;20006;-65
2023/01/06 00:49:16;;;;;;;;;;;;;;;;;;4999765;28;20156;-64
2023/01/06 00:51:42;;;;;;;;;;;;;;;;;;4998727;28;19948;-65
2023/01/06 00:54:09;;;;;;;;;;;;;;;;;;5000095;28;20350;-65
2023/01/06 00:56:37;;;;;;;;;;;;;;;;;;4985146;28;19940;-65
2023/01/06 00:59:02;;;;;;;;;;;;;;;;;;5014398;28;19917;-66
2023/01/06 01:01:27;;;;;;;;;;;;;;;;;;4999512;28;19925;-66
2023/01/06 01:03:53;;;;;;;;;;;;;;;;;;5001182;28;19925;-65
2023/01/06 01:06:21;;;;;;;;;;;;;;;;;;4998811;28;20592;-64
2023/01/06 01:08:51;;;;;;;;;;;;;;;;;;4997794;28;19921;-66
2023/01/06 01:14:03;;;;;;;;;;;;;;;;;;4997271;28;20486;-65
2023/01/06 01:16:31;;;;;;;;;;;;;;;;;;4993604;28;20287;-66
2023/01/06 01:18:56;;;;;;;;;;;;;;;;;;4999945;28;19958;-65
2023/01/06 01:21:21;;;;;;;;;;;;;;;;;;4999892;28;19921;-65
2023/01/06 01:23:47;;;;;;;;;;;;;;;;;;4999408;28;19951;-65
2023/01/06 01:26:12;;;;;;;;;;;;;;;;;;5002006;28;19928;-65
2023/01/06 01:28:42;;;;;;;;;;;;;;;;;;5001296;28;21517;-64
2023/01/06 01:31:07;;;;;;;;;;;;;;;;;;4997513;28;19974;-66
2023/01/06 01:33:32;;;;;;;;;;;;;;;;;;4999320;28;20376;-65
2023/01/06 01:35:58;;;;;;;;;;;;;;;;;;4981691;28;22123;-65
2023/01/06 01:38:23;;;;;;;;;;;;;;;;;;4999039;28;20396;-64
2023/01/06 01:40:51;;;;;;;;;;;;;;;;;;4997802;28;20050;-64
2023/01/06 01:43:16;;;;;;;;;;;;;;;;;;4997899;28;20234;-65
2023/01/06 01:45:44;;;;;;;;;;;;;;;;;;4997860;28;19921;-63
2023/01/06 01:48:09;;;;;;;;;;;;;;;;;;5000932;28;19944;-65
2023/01/06 01:50:35;;;;;;;;;;;;;;;;;;4998089;28;19922;-64
2023/01/06 01:53:03;;;;;;;;;;;;;;;;;;4998045;28;20014;-65
2023/01/06 01:55:31;;;;;;;;;;;;;;;;;;4999549;28;19928;-65
2023/01/06 01:57:59;;;;;;;;;;;;;;;;;;4999295;28;19932;-66
2023/01/06 02:00:27;;;;;;;;;;;;;;;;;;4996334;28;20388;-64
2023/01/06 02:02:53;;;;;;;;;;;;;;;;;;4994533;28;19928;-65
2023/01/06 02:05:20;;;;;;;;;;;;;;;;;;4998458;28;20419;-66
2023/01/06 02:07:46;;;;;;;;;;;;;;;;;;4995119;28;19990;-66
2023/01/06 02:10:13;;;;;;;;;;;;;;;;;;4998161;28;20762;-65
2023/01/06 02:12:41;;;;;;;;;;;;;;;;;;4996738;28;19976;-65
2023/01/06 02:15:06;;;;;;;;;;;;;;;;;;4997700;28;19961;-67
2023/01/06 02:17:34;;;;;;;;;;;;;;;;;;4998313;28;20434;-64
2023/01/06 02:20:02;;;;;;;;;;;;;;;;;;4995433;28;19921;-65
2023/01/06 02:22:27;;;;;;;;;;;;;;;;;;4997487;28;19929;-67
2023/01/06 02:24:53;;;;;;;;;;;;;;;;;;4998014;28;20382;-64
2023/01/06 02:27:18;;;;;;;;;;;;;;;;;;4995717;28;19933;-65
2023/01/06 02:29:44;;;;;;;;;;;;;;;;;;4998829;28;21063;-65
2023/01/06 02:32:13;;;;;;;;;;;;;;;;;;4997636;28;20415;-66
2023/01/06 02:34:40;;;;;;;;;;;;;;;;;;4997826;28;20320;-64
2023/01/06 02:37:05;;;;;;;;;;;;;;;;;;4993795;28;20421;-65
2023/01/06 02:39:31;;;;;;;;;;;;;;;;;;4998486;28;19951;-68
2023/01/06 02:42:00;;;;;;;;;;;;;;;;;;4995575;28;20369;-65
2023/01/06 02:44:25;;;;;;;;;;;;;;;;;;4980256;28;19932;-65
2023/01/06 02:46:50;;;;;;;;;;;;;;;;;;4996718;28;19936;-66
2023/01/06 02:49:15;;;;;;;;;;;;;;;;;;4996455;28;19964;-64
2023/01/06 02:51:41;;;;;;;;;;;;;;;;;;4998175;28;20142;-65
2023/01/06 02:54:08;;;;;;;;;;;;;;;;;;5011309;28;19928;-66
2023/01/06 02:56:34;;;;;;;;;;;;;;;;;;4998791;28;19921;-66
2023/01/06 02:59:00;;;;;;;;;;;;;;;;;;4995902;28;19946;-65
2023/01/06 03:01:26;;;;;;;;;;;;;;;;;;4994528;28;19925;-64
2023/01/06 03:03:53;;;;;;;;;;;;;;;;;;4978798;28;19925;-65
2023/01/06 03:06:21;;;;;;;;;;;;;;;;;;4996453;28;20579;-65
2023/01/06 03:08:46;;;;;;;;;;;;;;;;;;4996375;28;19921;-65
2023/01/06 03:11:12;;;;;;;;;;;;;;;;;;4997323;28;19917;-65
2023/01/06 03:13:38;;;;;;;;;;;;;;;;;;4997940;28;19980;-65
2023/01/06 03:16:04;;;;;;;;;;;;;;;;;;4995049;28;19981;-65
2023/01/06 03:18:29;;;;;;;;;;;;;;;;;;4981522;28;19921;-65
2023/01/06 03:20:57;;;;;;;;;;;;;;;;;;4994499;28;19925;-65
2023/01/06 03:23:22;;;;;;;;;;;;;;;;;;4995344;28;20020;-65
2023/01/06 03:25:48;;;;;;;;;;;;;;;;;;4996011;28;20775;-64
2023/01/06 03:28:14;;;;;;;;;;;;;;;;;;4994110;28;20006;-64
2023/01/06 03:30:42;;;;;;;;;;;;;;;;;;4994047;28;19921;-66
2023/01/06 03:33:10;;;;;;;;;;;;;;;;;;4997018;28;19931;-65
2023/01/06 03:35:36;;;;;;;;;;;;;;;;;;4994088;28;19936;-65
2023/01/06 03:38:03;;;;;;;;;;;;;;;;;;4993727;28;20340;-65
2023/01/06 03:40:32;;;;;;;;;;;;;;;;;;4991496;28;19971;-66
2023/01/06 03:43:12;;;;;;;;;;;;;;;;;;4998543;28;19925;-66
2023/01/06 03:45:40;;;;;;;;;;;;;;;;;;4994737;28;19917;-64
2023/01/06 03:48:08;;;;;;;;;;;;;;;;;;4999401;28;19921;-66
2023/01/06 03:50:33;;;;;;;;;;;;;;;;;;4984971;28;19928;-66
2023/01/06 03:52:58;;;;;;;;;;;;;;;;;;4995280;28;19968;-66
2023/01/06 03:55:24;;;;;;;;;;;;;;;;;;4998896;28;20029;-65
2023/01/06 03:57:49;;;;;;;;;;;;;;;;;;4998842;28;19924;-66
2023/01/06 04:00:15;;;;;;;;;;;;;;;;;;4996418;28;20665;-65
2023/01/06 04:02:40;;;;;;;;;;;;;;;;;;4998002;28;20012;-64
2023/01/06 04:05:05;;;;;;;;;;;;;;;;;;4999002;28;19929;-65
2023/01/06 04:07:33;;;;;;;;;;;;;;;;;;4998190;28;19971;-65
2023/01/06 04:10:01;;;;;;;;;;;;;;;;;;4999631;28;20277;-65
2023/01/06 04:12:38;;;;;;;;;;;;;;;;;;4982651;28;19921;-65
2023/01/06 04:15:06;;;;;;;;;;;;;;;;;;5003616;28;20453;-65
2023/01/06 04:17:33;;;;;;;;;;;;;;;;;;5004723;28;19917;-64
2023/01/06 04:19:58;;;;;;;;;;;;;;;;;;5001945;28;19928;-65
2023/01/06 04:22:28;;;;;;;;;;;;;;;;;;4986238;28;19925;-65
2023/01/06 04:24:56;;;;;;;;;;;;;;;;;;4985138;28;19928;-66
2023/01/06 04:27:21;;;;;;;;;;;;;;;;;;5001398;28;20265;-67
2023/01/06 04:29:49;;;;;;;;;;;;;;;;;;5002942;28;19964;-66
2023/01/06 04:32:17;;;;;;;;;;;;;;;;;;4999983;28;19917;-66
2023/01/06 04:34:42;;;;;;;;;;;;;;;;;;4998992;28;19918;-66
2023/01/06 04:37:08;;;;;;;;;;;;;;;;;;5004789;28;19917;-64
2023/01/06 04:39:33;;;;;;;;;;;;;;;;;;4998396;28;20328;-65
2023/01/06 04:42:01;;;;;;;;;;;;;;;;;;5001417;28;20008;-64
2023/01/06 04:44:31;;;;;;;;;;;;;;;;;;5000224;28;20428;-66
2023/01/06 04:46:58;;;;;;;;;;;;;;;;;;5003284;28;19928;-64
2023/01/06 04:49:24;;;;;;;;;;;;;;;;;;5002018;28;19921;-65
2023/01/06 04:51:49;;;;;;;;;;;;;;;;;;5000590;28;20247;-65
2023/01/06 04:54:15;;;;;;;;;;;;;;;;;;5000672;28;19928;-65
2023/01/06 04:56:40;;;;;;;;;;;;;;;;;;4987842;28;20766;-65
2023/01/06 04:59:05;;;;;;;;;;;;;;;;;;5000406;28;19928;-65
2023/01/06 05:01:30;;;;;;;;;;;;;;;;;;5002424;28;20033;-65
2023/01/06 05:03:56;;;;;;;;;;;;;;;;;;4984728;28;20028;-64
2023/01/06 05:06:21;;;;;;;;;;;;;;;;;;5000873;28;19971;-66
2023/01/06 05:08:49;;;;;;;;;;;;;;;;;;5001727;28;19918;-66
2023/01/06 05:11:17;;;;;;;;;;;;;;;;;;4999218;28;19931;-65
2023/01/06 05:13:43;;;;;;;;;;;;;;;;;;5000032;28;19921;-65
2023/01/06 05:16:08;;;;;;;;;;;;;;;;;;4998532;28;19921;-64
2023/01/06 05:18:33;;;;;;;;;;;;;;;;;;5003733;28;19999;-64
2023/01/06 05:20:58;;;;;;;;;;;;;;;;;;5002249;28;20044;-65
2023/01/06 05:23:24;;;;;;;;;;;;;;;;;;4986547;28;19986;-67
2023/01/06 05:25:49;;;;;;;;;;;;;;;;;;4998833;28;19917;-65
2023/01/06 05:28:15;;;;;;;;;;;;;;;;;;4999209;28;20830;-66
2023/01/06 05:30:42;;;;;;;;;;;;;;;;;;5002110;28;19921;-64
2023/01/06 05:33:08;;;;;;;;;;;;;;;;;;5003754;28;20085;-65
2023/01/06 05:35:33;;;;;;;;;;;;;;;;;;4984423;28;20041;-65
2023/01/06 05:38:01;;;;;;;;;;;;;;;;;;4998267;28;20396;-71
2023/01/06 05:40:26;;;;;;;;;;;;;;;;;;4993300;28;19947;-65
2023/01/06 05:42:54;;;;;;;;;;;;;;;;;;4997954;28;20022;-65
2023/01/06 05:45:23;;;;;;;;;;;;;;;;;;4999317;28;20493;-66
2023/01/06 05:47:48;;;;;;;;;;;;;;;;;;5000348;28;19928;-65
2023/01/06 05:53:06;;;;;;;;;;;;;;;;;;4999855;28;21578;-66
2023/01/06 05:55:32;;;;;;;;;;;;;;;;;;4999640;28;19968;-65
2023/01/06 05:57:57;;;;;;;;;;;;;;;;;;5002255;28;19921;-66
2023/01/06 06:00:24;;;;;;;;;;;;;;;;;;5001057;28;20872;-65
2023/01/06 06:02:50;;;;;;;;;;;;;;;;;;5001233;28;20434;-64
2023/01/06 06:05:15;;;;;;;;;;;;;;;;;;4984494;28;19956;-66
2023/01/06 06:07:41;;;;;;;;;;;;;;;;;;4999702;28;20064;-65
2023/01/06 06:10:08;;;;;;;;;;;;;;;;;;4999782;28;19921;-65
2023/01/06 06:12:34;;;;;;;;;;;;;;;;;;5001194;28;20936;-66
2023/01/06 06:15:01;;;;;;;;;;;;;;;;;;4981625;28;19929;-66
2023/01/06 06:17:27;;;;;;;;;;;;;;;;;;4997993;28;19932;-66
2023/01/06 06:19:53;;;;;;;;;;;;;;;;;;4986045;28;20029;-66
2023/01/06 06:22:21;;;;;;;;;;;;;;;;;;4999165;28;19926;-66
2023/01/06 06:24:46;;;;;;;;;;;;;;;;;;5001196;28;20512;-66
2023/01/06 06:27:15;;;;;;;;;;;;;;;;;;4998862;28;19918;-66
2023/01/06 06:29:40;;;;;;;;;;;;;;;;;;4985517;28;19933;-68
2023/01/06 06:32:08;;;;;;;;;;;;;;;;;;4998535;28;19936;-67
2023/01/06 06:34:34;;;;;;;;;;;;;;;;;;4999212;28;20279;-66
2023/01/06 06:37:01;;;;;;;;;;;;;;;;;;4995748;28;20342;-67
2023/01/06 06:39:29;;;;;;;;;;;;;;;;;;4984238;28;20006;-67
2023/01/06 06:41:56;;;;;;;;;;;;;;;;;;4999770;28;19921;-67
2023/01/06 06:44:24;;;;;;;;;;;;;;;;;;4997596;28;20013;-65
2023/01/06 06:46:50;;;;;;;;;;;;;;;;;;5001163;28;19933;-64
2023/01/06 06:49:15;;;;;;;;;;;;;;;;;;5002340;28;19933;-65
2023/01/06 06:51:46;;;;;;;;;;;;;;;;;;4998896;28;19929;-66
2023/01/06 06:54:13;;;;;;;;;;;;;;;;;;4993176;28;20007;-67
2023/01/06 06:56:39;;;;;;;;;;;;;;;;;;4998391;28;19984;-66
2023/01/06 06:59:04;;;;;;;;;;;;;;;;;;4993495;28;20024;-67
2023/01/06 07:01:31;;;;;;;;;;;;;;;;;;4996464;28;20041;-66
2023/01/06 07:03:58;;;;;;;;;;;;;;;;;;4997244;28;20437;-65
2023/01/06 07:06:26;;;;;;;;;;;;;;;;;;4996676;28;20213;-66
2023/01/06 07:08:54;;;;;;;;;;;;;;;;;;4996130;28;20362;-66
2023/01/06 07:11:21;;;;;;;;;;;;;;;;;;4999347;28;19921;-65
2023/01/06 07:13:47;;;;;;;;;;;;;;;;;;4999395;28;19924;-67
2023/01/06 07:16:12;;;;;;;;;;;;;;;;;;4982505;28;20011;-68
2023/01/06 07:18:38;;;;;;;;;;;;;;;;;;5000810;28;19918;-67
2023/01/06 07:21:04;;;;;;;;;;;;;;;;;;4999698;28;19948;-68
2023/01/06 07:23:30;;;;;;;;;;;;;;;;;;5000137;28;20128;-66
2023/01/06 07:25:58;;;;;;;;;;;;;;;;;;4985919;28;19932;-68
2023/01/06 07:28:23;;;;;;;;;;;;;;;;;;4999887;28;19925;-67
2023/01/06 07:30:48;;;;;;;;;;;;;;;;;;4983795;28;21163;-67
2023/01/06 07:33:14;;;;;;;;;;;;;;;;;;4996877;28;19968;-66
2023/01/06 07:35:42;;;;;;;;;;;;;;;;;;4994038;28;20637;-67
2023/01/06 07:38:08;;;;;;;;;;;;;;;;;;4993568;28;19929;-68
2023/01/06 07:40:35;;;;;;;;;;;;;;;;;;4977179;28;19983;-64
2023/01/06 07:43:01;;;;;;;;;;;;;;;;;;4993258;28;19925;-64
2023/01/06 07:45:26;;;;;;;;;;;;;;;;;;4994386;28;20419;-67
2023/01/06 07:47:52;;;;;;;;;;;;;;;;;;4994398;28;20365;-70
2023/01/06 07:50:17;;;;;;;;;;;;;;;;;;4998282;28;19923;-63
2023/01/06 07:52:45;;;;;;;;;;;;;;;;;;4997902;28;20239;-64
2023/01/06 07:55:11;;;;;;;;;;;;;;;;;;4996692;28;20265;-63
2023/01/06 07:57:37;;;;;;;;;;;;;;;;;;4998040;28;19929;-63
2023/01/06 08:00:04;;;;;;;;;;;;;;;;;;4983453;28;19917;-64
2023/01/06 08:02:30;;;;;;;;;;;;;;;;;;4999619;28;19940;-64
2023/01/06 08:04:55;;;;;;;;;;;;;;;;;;4980907;28;19968;-64
2023/01/06 08:07:21;;;;;;;;;;;;;;;;;;4996376;28;20462;-63
2023/01/06 08:09:46;;;;;;;;;;;;;;;;;;4983742;28;19921;-65
2023/01/06 08:12:14;;;;;;;;;;;;;;;;;;4996603;28;19921;-63
2023/01/06 08:14:39;;;;;;;;;;;;;;;;;;4996694;28;19987;-63
2023/01/06 08:17:05;;;;;;;;;;;;;;;;;;4992947;28;20680;-65
2023/01/06 08:19:30;;;;;;;;;;;;;;;;;;5009957;28;19932;-64
2023/01/06 08:21:56;;;;;;;;;;;;;;;;;;5011989;28;19928;-63
2023/01/06 08:24:26;;;;;;;;;;;;;;;;;;4999720;28;19925;-64
2023/01/06 08:26:51;;;;;;;;;;;;;;;;;;4993677;28;20052;-64
2023/01/06 08:29:16;;;;;;;;;;;;;;;;;;5000466;28;19927;-63
2023/01/06 08:31:42;;;;;;;;;;;;;;;;;;4997465;28;20446;-65
2023/01/06 08:34:13;;;;;;;;;;;;;;;;;;4996642;28;19929;-64
2023/01/06 08:36:42;;;;;;;;;;;;;;;;;;4997016;28;19924;-65
2023/01/06 08:39:07;;;;;;;;;;;;;;;;;;4997281;28;19921;-66
2023/01/06 08:41:35;;;;;;;;;;;;;;;;;;4997701;28;19924;-65
2023/01/06 08:44:03;;;;;;;;;;;;;;;;;;4990248;28;19961;-66
2023/01/06 08:46:28;;;;;;;;;;;;;;;;;;4996462;28;19927;-65
2023/01/06 08:48:56;;;;;;;;;;;;;;;;;;4996339;28;19917;-67
2023/01/06 08:51:22;;;;;;;;;;;;;;;;;;4998137;28;20930;-64
2023/01/06 08:53:50;;;;;;;;;;;;;;;;;;4982251;28;19955;-64
2023/01/06 08:56:18;;;;;;;;;;;;;;;;;;4995637;28;20012;-64
2023/01/06 08:58:43;;;;;;;;;;;;;;;;;;4994078;28;19943;-63
2023/01/06 09:01:11;;;;;;;;;;;;;;;;;;4997606;28;19925;-63
2023/01/06 09:03:36;;;;;;;;;;;;;;;;;;4997038;28;20035;-64
2023/01/06 09:06:04;;;;;;;;;;;;;;;;;;4983614;28;19925;-64
2023/01/06 09:11:45;;;;;;;;;;;;;;;;;;4998395;28;20520;-64
2023/01/06 09:14:15;;;;;;;;;;;;;;;;;;5000372;28;19917;-66
2023/01/06 09:16:40;;;;;;;;;;;;;;;;;;4998096;28;19932;-66
2023/01/06 09:19:09;;;;;;;;;;;;;;;;;;4999832;28;19924;-65
2023/01/06 09:21:45;;;;;;;;;;;;;;;;;;4985002;28;20711;-68
2023/01/06 09:24:15;;;;;;;;;;;;;;;;;;5000231;28;19928;-65
2023/01/06 09:26:43;;;;;;;;;;;;;;;;;;4998139;28;19921;-67
2023/01/06 09:29:08;;;;;;;;;;;;;;;;;;4996751;28;19925;-65
2023/01/06 09:31:34;;;;;;;;;;;;;;;;;;5001433;28;20016;-68
2023/01/06 09:33:59;;;;;;;;;;;;;;;;;;5000858;28;19925;-65
2023/01/06 09:36:31;;;;;;;;;;;;;;;;;;4999643;28;19953;-65
2023/01/06 09:38:59;;;;;;;;;;;;;;;;;;4986732;28;20094;-65
2023/01/06 09:41:26;;;;;;;;;;;;;;;;;;4999563;28;19940;-65
2023/01/06 09:43:52;;;;;;;;;;;;;;;;;;5000732;28;20342;-64
2023/01/06 09:46:18;;;;;;;;;;;;;;;;;;5000632;28;19925;-65
2023/01/06 09:48:48;;;;;;;;;;;;;;;;;;5000348;28;20391;-65
2023/01/06 09:51:14;;;;;;;;;;;;;;;;;;5001658;28;19921;-65
2023/01/06 09:53:39;;;;;;;;;;;;;;;;;;5000563;28;19947;-65
2023/01/06 09:56:10;;;;;;;;;;;;;;;;;;4998909;28;20365;-64
2023/01/06 09:58:35;;;;;;;;;;;;;;;;;;4983916;28;20003;-65
2023/01/06 10:01:00;;;;;;;;;;;;;;;;;;4998546;28;20422;-63
2023/01/06 10:03:28;;;;;;;;;;;;;;;;;;4995759;28;19956;-63
2023/01/06 10:05:57;;;;;;;;;;;;;;;;;;4998310;28;19960;-63
2023/01/06 10:08:22;;;;;;;;;;;;;;;;;;4993722;28;20288;-65
2023/01/06 10:10:49;;;;;;;;;;;;;;;;;;4996248;28;19917;-64
2023/01/06 10:13:15;;;;;;;;;;;;;;;;;;4978377;28;20756;-62
2023/01/06 10:15:40;;;;;;;;;;;;;;;;;;4992910;28;19922;-63
2023/01/06 10:18:08;;;;;;;;;;;;;;;;;;4999625;28;19928;-64
2023/01/06 10:20:33;;;;;;;;;;;;;;;;;;4984428;28;20047;-65
2023/01/06 10:23:17;;;;;;;;;;;;;;;;;;4999637;28;19959;-65
2023/01/06 10:28:59;;;;;;;;;;;;;;;;;;5001632;28;19924;-63
2023/01/06 10:31:25;;;;;;;;;;;;;;;;;;4999814;28;19917;-63
2023/01/06 10:33:50;;;;;;;;;;;;;;;;;;5002850;28;19928;-65
2023/01/06 10:36:18;;;;;;;;;;;;;;;;;;5001821;28;21461;-64
2023/01/06 10:38:46;;;;;;;;;;;;;;;;;;5001742;28;19924;-63
2023/01/06 10:41:14;;;;;;;;;;;;;;;;;;5001652;28;20260;-63
2023/01/06 10:43:41;;;;;;;;;;;;;;;;;;5001195;28;19921;-64
2023/01/06 10:46:09;;;;;;;;;;;;;;;;;;4997764;28;20548;-64
2023/01/06 10:48:36;;;;;;;;;;;;;;;;;;4983726;28;19921;-64
2023/01/06 10:51:02;;;;;;;;;;;;;;;;;;5000662;28;20128;-64
2023/01/06 10:53:27;;;;;;;;;;;;;;;;;;4996301;28;19921;-65
2023/01/06 10:55:55;;;;;;;;;;;;;;;;;;4997177;28;19986;-64
2023/01/06 10:58:20;;;;;;;;;;;;;;;;;;4999084;28;19925;-64
2023/01/06 11:00:46;;;;;;;;;;;;;;;;;;4998085;28;19968;-65
2023/01/06 11:03:11;;;;;;;;;;;;;;;;;;4997180;28;19932;-64
2023/01/06 11:05:36;;;;;;;;;;;;;;;;;;4996933;28;20020;-63
2023/01/06 11:08:02;;;;;;;;;;;;;;;;;;4996819;28;19929;-63
2023/01/06 11:10:30;;;;;;;;;;;;;;;;;;4998399;28;20154;-64
2023/01/06 11:12:58;;;;;;;;;;;;;;;;;;4996596;28;20024;-65
2023/01/06 11:15:26;;;;;;;;;;;;;;;;;;4995588;28;19925;-64
2023/01/06 11:20:46;;;;;;;;;;;;;;;;;;4999117;28;20196;-64
2023/01/06 11:23:14;;;;;;;;;;;;;;;;;;4997002;28;19925;-64
2023/01/06 11:25:42;;;;;;;;;;;;;;;;;;4996077;28;19928;-65
2023/01/06 11:28:07;;;;;;;;;;;;;;;;;;5000450;28;19917;-64
2023/01/06 11:30:35;;;;;;;;;;;;;;;;;;4997627;28;19921;-64
2023/01/06 11:33:00;;;;;;;;;;;;;;;;;;4998569;28;19944;-64
2023/01/06 11:35:26;;;;;;;;;;;;;;;;;;4996531;28;20644;-67
2023/01/06 11:37:51;;;;;;;;;;;;;;;;;;4997514;28;20504;-64
2023/01/06 11:40:19;;;;;;;;;;;;;;;;;;4998039;28;19971;-66
2023/01/06 11:42:44;;;;;;;;;;;;;;;;;;4982402;28;20207;-64
2023/01/06 11:45:09;;;;;;;;;;;;;;;;;;4997330;28;20398;-64
2023/01/06 11:47:37;;;;;;;;;;;;;;;;;;4998540;28;19917;-64
2023/01/06 11:50:05;;;;;;;;;;;;;;;;;;4999183;28;20063;-64
2023/01/06 11:52:30;;;;;;;;;;;;;;;;;;4998527;28;19932;-65
2023/01/06 11:58:11;;;;;;;;;;;;;;;;;;4998591;28;20028;-66
2023/01/06 12:00:37;;;;;;;;;;;;;;;;;;4998138;28;20498;-63
2023/01/06 12:03:06;;;;;;;;;;;;;;;;;;4996307;28;20609;-66
2023/01/06 12:05:33;;;;;;;;;;;;;;;;;;4997988;28;20680;-64
2023/01/06 12:07:59;;;;;;;;;;;;;;;;;;4997128;28;19924;-68
2023/01/06 12:10:24;;;;;;;;;;;;;;;;;;4998155;28;20039;-65
2023/01/06 12:12:53;;;;;;;;;;;;;;;;;;4995677;28;19927;-66
2023/01/06 12:15:21;;;;;;;;;;;;;;;;;;5013671;28;20501;-65
2023/01/06 12:17:46;;;;;;;;;;;;;;;;;;4995371;28;20031;-66
2023/01/06 12:20:12;;;;;;;;;;;;;;;;;;4997222;28;20491;-64
2023/01/06 12:25:54;;;;;;;;;;;;;;;;;;4999067;28;20015;-66
2023/01/06 12:28:19;;;;;;;;;;;;;;;;;;4981962;28;20538;-66
2023/01/06 12:30:45;;;;;;;;;;;;;;;;;;4996247;28;19917;-64
2023/01/06 12:33:16;;;;;;;;;;;;;;;;;;4984413;28;19933;-65
2023/01/06 12:35:41;;;;;;;;;;;;;;;;;;4997966;28;20604;-65
2023/01/06 12:38:08;;;;;;;;;;;;;;;;;;5002475;28;19921;-65
2023/01/06 12:40:33;;;;;;;;;;;;;;;;;;5000434;28;19957;-64
2023/01/06 12:42:58;;;;;;;;;;;;;;;;;;4999355;28;20364;-65
2023/01/06 12:45:24;;;;;;;;;;;;;;;;;;5001103;28;20059;-66
2023/01/06 12:47:52;;;;;;;;;;;;;;;;;;4986123;28;19940;-69
2023/01/06 12:50:17;;;;;;;;;;;;;;;;;;5001074;28;19981;-66
2023/01/06 12:52:45;;;;;;;;;;;;;;;;;;5000195;28;19921;-66
2023/01/06 12:55:10;;;;;;;;;;;;;;;;;;4999047;28;20232;-65
2023/01/06 13:00:53;;;;;;;;;;;;;;;;;;5001529;28;20579;-68
2023/01/06 13:03:20;;;;;;;;;;;;;;;;;;4999498;28;20171;-66
2023/01/06 13:05:53;;;;;;;;;;;;;;;;;;4987585;28;20447;-67
2023/01/06 13:08:21;;;;;;;;;;;;;;;;;;4998385;28;19982;-68
2023/01/06 13:10:47;;;;;;;;;;;;;;;;;;5000333;28;20373;-66
2023/01/06 13:13:13;;;;;;;;;;;;;;;;;;4999850;28;19917;-67
2023/01/06 13:15:38;;;;;;;;;;;;;;;;;;4998260;28;19976;-70
2023/01/06 13:18:20;;;;;;;;;;;;;;;;;;5000443;28;19921;-67
2023/01/06 13:20:47;;;;;;;;;;;;;;;;;;4998394;28;19922;-67
2023/01/06 13:23:15;;;;;;;;;;;;;;;;;;4982711;28;19925;-67
2023/01/06 13:25:43;;;;;;;;;;;;;;;;;;4999357;28;19917;-67
2023/01/06 13:28:26;;;;;;;;;;;;;;;;;;5002347;28;20031;-72
2023/01/06 13:30:53;;;;;;;;;;;;;;;;;;4985678;28;20052;-68
2023/01/06 13:33:19;;;;;;;;;;;;;;;;;;4999561;28;20296;-67
2023/01/06 13:35:44;;;;;;;;;;;;;;;;;;5019938;28;20338;-67
2023/01/06 13:38:14;;;;;;;;;;;;;;;;;;4999566;28;20435;-67
2023/01/06 13:40:40;;;;;;;;;;;;;;;;;;5013824;28;21636;-68
2023/01/06 13:43:13;;;;;;;;;;;;;;;;;;5020421;28;19924;-67
2023/01/06 13:45:38;;;;;;;;;;;;;;;;;;4996784;28;20067;-67
2023/01/06 13:48:07;;;;;;;;;;;;;;;;;;5014956;28;20370;-67
2023/01/06 13:50:32;;;;;;;;;;;;;;;;;;5014839;28;20053;-68
2023/01/06 13:53:01;;;;;;;;;;;;;;;;;;4997065;28;19935;-69
2023/01/06 13:55:27;;;;;;;;;;;;;;;;;;5001899;28;20080;-67
2023/01/06 13:57:53;;;;;;;;;;;;;;;;;;4998250;28;20039;-68
2023/01/06 14:00:23;;;;;;;;;;;;;;;;;;4997168;28;20238;-68
2023/01/06 14:02:48;;;;;;;;;;;;;;;;;;4998693;28;19929;-67
2023/01/06 14:05:14;;;;;;;;;;;;;;;;;;4994648;28;20564;-67
2023/01/06 14:07:50;;;;;;;;;;;;;;;;;;4997172;28;19927;-68
2023/01/06 14:10:18;;;;;;;;;;;;;;;;;;4978214;28;19921;-68
2023/01/06 14:12:43;;;;;;;;;;;;;;;;;;4995976;28;19932;-69
2023/01/06 14:15:11;;;;;;;;;;;;;;;;;;4998362;28;20383;-68
2023/01/06 14:17:39;;;;;;;;;;;;;;;;;;4998889;28;20451;-68
2023/01/06 14:20:06;;;;;;;;;;;;;;;;;;4997842;28;19948;-69
2023/01/06 14:22:32;;;;;;;;;;;;;;;;;;4994287;28;20650;-69
2023/01/06 14:24:58;;;;;;;;;;;;;;;;;;4993692;28;19917;-68
2023/01/06 14:27:26;;;;;;;;;;;;;;;;;;4993612;28;19967;-69
2023/01/06 14:29:54;;;;;;;;;;;;;;;;;;4991934;28;20368;-67
2023/01/06 14:32:19;;;;;;;;;;;;;;;;;;4995787;28;19932;-67
2023/01/06 14:34:45;;;;;;;;;;;;;;;;;;4995312;28;19921;-67
2023/01/06 14:40:32;;;;;;;;;;;;;;;;;;4993527;28;19940;-67
2023/01/06 14:43:00;;;;;;;;;;;;;;;;;;4975583;28;19936;-68
2023/01/06 14:45:28;;;;;;;;;;;;;;;;;;4992843;28;20917;-68
2023/01/06 14:47:56;;;;;;;;;;;;;;;;;;4997251;28;19921;-67
2023/01/06 14:50:23;;;;;;;;;;;;;;;;;;4989748;28;19990;-67
2023/01/06 14:52:49;;;;;;;;;;;;;;;;;;4992848;28;19921;-67
2023/01/06 14:55:15;;;;;;;;;;;;;;;;;;4993848;28;19932;-68
2023/01/06 14:57:49;;;;;;;;;;;;;;;;;;4992468;28;20094;-68
2023/01/06 15:00:15;;;;;;;;;;;;;;;;;;4989631;28;19925;-67
2023/01/06 15:02:42;;;;;;;;;;;;;;;;;;4989624;28;20015;-68
2023/01/06 15:05:08;;;;;;;;;;;;;;;;;;4993660;28;19959;-66
2023/01/06 15:07:36;;;;;;;;;;;;;;;;;;4993364;28;19916;-68
2023/01/06 15:10:01;;;;;;;;;;;;;;;;;;4990376;28;19944;-67
2023/01/06 15:12:29;;;;;;;;;;;;;;;;;;4991819;28;20456;-67
2023/01/06 15:14:57;;;;;;;;;;;;;;;;;;4993049;28;20007;-67
2023/01/06 15:17:23;;;;;;;;;;;;;;;;;;4992459;28;20328;-68
2023/01/06 15:19:48;;;;;;;;;;;;;;;;;;4998345;28;20403;-67
2023/01/06 15:22:13;;;;;;;;;;;;;;;;;;4994189;28;19917;-67
2023/01/06 15:24:41;;;;;;;;;;;;;;;;;;4995881;28;20525;-68
2023/01/06 15:27:07;;;;;;;;;;;;;;;;;;4979667;28;19932;-67
2023/01/06 15:29:32;;;;;;;;;;;;;;;;;;4988557;28;19918;-68
2023/01/06 15:31:57;;;;;;;;;;;;;;;;;;4995824;28;19982;-67
2023/01/06 15:34:25;;;;;;;;;;;;;;;;;;4990935;28;20170;-67
2023/01/06 15:36:52;;;;;;;;;;;;;;;;;;4974730;28;19986;-68
2023/01/06 15:39:20;;;;;;;;;;;;;;;;;;4994960;28;19925;-69
2023/01/06 15:41:46;;;;;;;;;;;;;;;;;;4991746;28;20014;-68
2023/01/06 15:44:11;;;;;;;;;;;;;;;;;;4993222;28;20008;-69
2023/01/06 15:46:37;;;;;;;;;;;;;;;;;;4992851;28;21406;-68
2023/01/06 15:49:03;;;;;;;;;;;;;;;;;;4994260;28;19917;-67
2023/01/06 15:51:28;;;;;;;;;;;;;;;;;;4994567;28;20300;-67
2023/01/06 15:53:56;;;;;;;;;;;;;;;;;;4997661;28;20197;-67
2023/01/06 15:56:24;;;;;;;;;;;;;;;;;;4982085;28;20012;-68
2023/01/06 15:58:49;;;;;;;;;;;;;;;;;;4995795;28;19921;-67
2023/01/06 16:01:14;;;;;;;;;;;;;;;;;;4995550;28;20281;-68
2023/01/06 16:03:40;;;;;;;;;;;;;;;;;;4998424;28;19925;-68
2023/01/06 16:06:06;;;;;;;;;;;;;;;;;;4993504;28;19967;-68
2023/01/06 16:08:32;;;;;;;;;;;;;;;;;;4995883;28;20683;-68
2023/01/06 16:10:59;;;;;;;;;;;;;;;;;;4998878;28;19956;-68
2023/01/06 16:13:24;;;;;;;;;;;;;;;;;;5012429;28;19994;-68
2023/01/06 16:15:50;;;;;;;;;;;;;;;;;;4995300;28;19951;-68
2023/01/06 16:18:19;;;;;;;;;;;;;;;;;;4991996;28;20032;-69
2023/01/06 16:20:47;;;;;;;;;;;;;;;;;;4996407;28;20559;-68
2023/01/06 16:23:14;;;;;;;;;;;;;;;;;;4998589;28;19987;-68
2023/01/06 16:25:42;;;;;;;;;;;;;;;;;;4995307;28;20009;-69
2023/01/06 16:28:10;;;;;;;;;;;;;;;;;;4998592;28;19924;-69
2023/01/06 16:30:37;;;;;;;;;;;;;;;;;;4997497;28;19928;-69
2023/01/06 16:33:04;;;;;;;;;;;;;;;;;;4997444;28;19994;-69
2023/01/06 16:35:31;;;;;;;;;;;;;;;;;;4983698;28;20456;-69
2023/01/06 16:37:57;;;;;;;;;;;;;;;;;;4981700;28;20162;-69
2023/01/06 16:40:24;;;;;;;;;;;;;;;;;;4997986;28;19921;-69
2023/01/06 16:42:52;;;;;;;;;;;;;;;;;;4996431;28;19971;-71
2023/01/06 16:45:19;;;;;;;;;;;;;;;;;;4993508;28;20016;-68
2023/01/06 16:47:47;;;;;;;;;;;;;;;;;;4996149;28;19920;-68
2023/01/06 16:50:18;;;;;;;;;;;;;;;;;;4983491;28;20073;-68
2023/01/06 16:52:43;;;;;;;;;;;;;;;;;;4976884;28;19929;-68
2023/01/06 16:55:08;;;;;;;;;;;;;;;;;;4981901;28;19932;-68
2023/01/06 16:57:33;;;;;;;;;;;;;;;;;;4994952;28;20507;-68
2023/01/06 16:59:59;;;;;;;;;;;;;;;;;;4996417;28;19983;-68
2023/01/06 17:02:26;;;;;;;;;;;;;;;;;;4996612;28;20551;-68
2023/01/06 17:04:54;;;;;;;;;;;;;;;;;;4994392;28;20168;-68
2023/01/06 17:07:20;;;;;;;;;;;;;;;;;;4995599;28;21066;-69
2023/01/06 17:09:49;;;;;;;;;;;;;;;;;;4980374;28;19924;-68
2023/01/06 17:13:33;;;;;;;;;;;;;;;;;;4993297;28;19921;-69
2023/01/06 17:15:03;;;;;;;;;;;;;;;;;;4996385;28;20038;-69